Time;durP1;ratioP1;P1;durP2;ratioP2;P2;SDS_P1;SDS_P2;PMS_P1;PMS_P2;Temp;Humidity;BMP_temperature;BMP_pressure;BME280_temperature;BME280_humidity;BME280_pressure;Samples;Min_cycle;Max_cycle;Signal;HPM_P1;HPM_P2
2022/09/28 00:00:22;;;;;;;3.17;0.80;;;;;;;24.55;56.21;100594.38;2096787;28;20394;-73
2022/09/28 00:01:44;;;;;;;3.58;0.90;;;;;;;24.60;55.00;100603.19;2097026;28;20110;-73
2022/09/28 00:03:08;;;;;;;2.15;0.60;;;;;;;24.66;54.71;100612.81;2096960;28;20075;-73
2022/09/28 00:04:31;;;;;;;2.42;0.77;;;;;;;24.66;55.09;100627.19;2105253;28;20166;-73
2022/09/28 00:06:00;;;;;;;3.95;1.13;;;;;;;24.65;55.85;100625.44;2099255;28;20054;-73
2022/09/28 00:07:24;;;;;;;8.80;2.13;;;;;;;24.63;56.59;100621.94;2097686;28;20158;-73
2022/09/28 00:08:48;;;;;;;3.33;0.88;;;;;;;24.60;56.80;100633.75;2099375;28;20041;-73
2022/09/28 00:10:11;;;;;;;1.85;0.88;;;;;;;24.56;57.62;100633.94;2090981;28;20064;-73
2022/09/28 00:11:32;;;;;;;3.80;1.20;;;;;;;24.55;58.14;100635.75;2086073;28;20052;-74
2022/09/28 00:12:55;;;;;;;6.47;1.15;;;;;;;24.56;58.82;100645.63;2096834;28;20126;-73
2022/09/28 00:14:18;;;;;;;3.53;0.93;;;;;;;24.56;59.24;100658.22;2096574;28;20090;-73
2022/09/28 00:15:40;;;;;;;7.32;1.92;;;;;;;24.51;59.31;100658.44;2096718;28;20143;-73
2022/09/28 00:17:03;;;;;;;5.38;1.02;;;;;;;24.48;60.01;100647.75;2096477;28;20037;-73
2022/09/28 00:18:26;;;;;;;5.10;0.70;;;;;;;24.46;60.77;100660.47;2105254;28;20530;-73
2022/09/28 00:19:49;;;;;;;6.60;1.48;;;;;;;24.45;60.96;100663.22;2099176;28;20037;-74
2022/09/28 00:21:12;;;;;;;5.35;1.33;;;;;;;24.46;61.32;100654.19;2098918;28;20053;-73
2022/09/28 00:22:36;;;;;;;3.95;1.08;;;;;;;24.41;62.05;100664.31;2097065;28;20048;-73
2022/09/28 00:24:12;;;;;;;4.50;1.90;;;;;;;24.39;62.81;100661.69;2105214;28;20052;-73
2022/09/28 00:25:35;;;;;;;5.03;1.48;;;;;;;24.35;63.67;100661.88;2099226;28;20044;-73
2022/09/28 00:27:00;;;;;;;5.53;1.20;;;;;;;24.33;63.66;100655.66;2105068;28;20075;-74
2022/09/28 00:28:21;;;;;;;6.40;1.67;;;;;;;24.32;63.56;100649.38;2082846;28;20045;-74
2022/09/28 00:29:44;;;;;;;2.25;1.05;;;;;;;24.30;63.25;100667.44;2100000;28;20040;-74
2022/09/28 00:31:06;;;;;;;6.20;1.25;;;;;;;24.33;62.79;100670.03;2099517;28;20139;-72
2022/09/28 00:32:28;;;;;;;4.18;1.00;;;;;;;24.34;62.26;100676.31;2088474;28;20045;-73
2022/09/28 00:33:55;;;;;;;4.28;1.13;;;;;;;24.31;61.95;100673.72;2085761;28;20381;-73
2022/09/28 00:35:18;;;;;;;9.00;1.00;;;;;;;24.30;61.51;100689.03;2095155;28;20049;-72
2022/09/28 00:36:42;;;;;;;3.60;0.80;;;;;;;24.34;60.50;100681.72;2091109;28;20132;-72
2022/09/28 00:38:08;;;;;;;4.47;1.00;;;;;;;24.35;59.82;100673.53;2094694;28;20052;-72
2022/09/28 00:39:31;;;;;;;4.68;1.17;;;;;;;24.35;59.62;100664.59;2096808;28;20434;-72
2022/09/28 00:40:54;;;;;;;4.22;1.30;;;;;;;24.38;60.38;100664.44;2095419;28;20048;-73
2022/09/28 00:42:19;;;;;;;7.07;1.35;;;;;;;24.39;60.67;100661.69;2098357;28;20044;-72
2022/09/28 00:43:41;;;;;;;8.02;1.42;;;;;;;24.38;60.83;100656.34;2099531;28;20045;-72
2022/09/28 00:45:03;;;;;;;4.25;1.42;;;;;;;24.35;60.86;100641.13;2096510;28;20053;-73
2022/09/28 00:46:31;;;;;;;7.00;1.20;;;;;;;24.38;59.03;100654.53;2104991;28;20052;-73
2022/09/28 00:47:59;;;;;;;8.45;1.38;;;;;;;24.41;58.66;100648.13;2090989;28;20036;-73
2022/09/28 00:49:32;;;;;;;7.18;1.27;;;;;;;24.39;58.00;100652.69;2103729;28;20051;-73
2022/09/28 00:50:57;;;;;;;4.28;1.00;;;;;;;24.40;57.02;100649.94;2090952;28;20041;-73
2022/09/28 00:52:21;;;;;;;5.95;1.10;;;;;;;24.41;56.05;100649.00;2085992;28;20044;-73
2022/09/28 00:53:44;;;;;;;3.88;1.30;;;;;;;24.44;55.59;100646.16;2094432;28;20338;-72
2022/09/28 00:55:11;;;;;;;4.22;0.80;;;;;;;24.48;54.75;100649.63;2088301;28;20049;-73
2022/09/28 00:56:40;;;;;;;5.43;0.90;;;;;;;24.51;53.97;100654.88;2095140;28;20040;-72
2022/09/28 00:58:05;;;;;;;2.20;0.73;;;;;;;24.55;53.30;100651.06;2097415;28;20044;-73
2022/09/28 00:59:27;;;;;;;2.58;0.80;;;;;;;24.56;53.18;100659.13;2088440;28;20037;-73
2022/09/28 01:00:51;;;;;;;;;;;;;;;24.53;52.79;100653.88;2102409;28;20043;-73
2022/09/28 01:02:12;;;;;;;10.70;1.20;;;;;;;24.53;53.36;100652.97;2090871;28;19974;-73
2022/09/28 01:03:35;;;;;;;3.78;1.20;;;;;;;24.50;53.33;100647.69;2085430;28;20099;-73
2022/09/28 01:05:00;;;;;;;6.63;0.80;;;;;;;24.50;53.05;100653.97;2085629;28;20075;-73
2022/09/28 01:06:26;;;;;;;6.75;1.00;;;;;;;24.50;52.48;100653.09;2094176;28;20122;-73
2022/09/28 01:07:49;;;;;;;10.23;1.63;;;;;;;24.46;52.47;100651.50;2088381;28;20048;-72
2022/09/28 01:09:13;;;;;;;2.40;0.90;;;;;;;24.45;52.66;100650.63;2084979;28;20048;-73
2022/09/28 01:10:35;;;;;;;8.70;1.10;;;;;;;24.44;52.46;100664.16;2094178;28;20045;-73
2022/09/28 01:11:57;;;;;;;2.83;0.77;;;;;;;24.42;52.12;100661.53;2080000;28;20110;-73
2022/09/28 01:13:21;;;;;;;2.15;0.77;;;;;;;24.42;51.64;100664.22;2082877;28;20435;-72
2022/09/28 01:14:44;;;;;;;2.63;0.65;;;;;;;24.40;51.63;100662.56;2094422;28;20090;-73
2022/09/28 01:16:13;;;;;;;3.13;0.82;;;;;;;24.40;51.09;100665.25;2079874;28;20080;-72
2022/09/28 01:17:51;;;;;;;6.25;0.80;;;;;;;24.39;51.11;100663.50;2086336;28;20488;-73
2022/09/28 01:19:40;;;;;;;3.60;0.98;;;;;;;24.36;51.00;100656.41;2088923;28;20142;-73
2022/09/28 01:21:10;;;;;;;5.47;0.82;;;;;;;24.31;50.81;100661.13;2098371;28;20079;-73
2022/09/28 01:22:53;;;;;;;3.38;1.17;;;;;;;24.29;50.80;100656.72;2097223;28;20040;-72
2022/09/28 01:24:23;;;;;;;;;;;;;;;24.21;50.98;100651.69;2090734;28;20146;-73
2022/09/28 01:25:52;;;;;;;6.57;1.25;;;;;;;24.19;51.01;100651.72;2095854;28;20038;-73
2022/09/28 01:27:25;;;;;;;6.45;1.20;;;;;;;24.24;49.60;100662.31;2088739;28;20099;-72
2022/09/28 01:28:53;;;;;;;6.47;1.10;;;;;;;24.30;48.90;100663.88;2096138;28;20029;-72
2022/09/28 01:30:18;;;;;;;2.80;0.82;;;;;;;24.38;47.64;100661.72;2080460;28;20061;-72
2022/09/28 01:31:44;;;;;;;3.92;1.20;;;;;;;24.44;47.48;100654.25;2092677;28;20404;-72
2022/09/28 01:33:11;;;;;;;3.15;1.20;;;;;;;24.54;46.91;100649.34;2096697;28;20041;-72
2022/09/28 01:34:39;;;;;;;10.00;1.95;;;;;;;24.63;46.15;100657.03;2088278;28;20049;-72
2022/09/28 01:36:08;;;;;;;3.15;1.00;;;;;;;24.65;46.09;100636.25;2095535;28;20060;-73
2022/09/28 01:37:40;;;;;;;3.53;1.35;;;;;;;24.66;45.82;100639.81;2096979;28;20044;-73
2022/09/28 01:39:08;;;;;;;2.58;0.63;;;;;;;24.68;45.55;100643.34;2097285;28;20083;-73
2022/09/28 01:40:35;;;;;;;5.13;0.90;;;;;;;24.68;45.29;100646.88;2097155;28;20107;-72
2022/09/28 01:42:03;;;;;;;6.95;0.88;;;;;;;24.66;45.48;100648.81;2096560;28;20056;-73
2022/09/28 01:43:30;;;;;;;3.85;0.80;;;;;;;24.64;44.92;100647.97;2090425;28;20545;-72
2022/09/28 01:44:57;;;;;;;6.35;1.30;;;;;;;24.66;45.16;100650.63;2094438;28;20124;-73
2022/09/28 01:46:23;;;;;;;4.47;1.00;;;;;;;24.66;44.75;100643.41;2098873;28;20041;-72
2022/09/28 01:47:49;;;;;;;6.05;1.00;;;;;;;24.66;44.78;100640.69;2096817;28;20135;-72
2022/09/28 01:49:16;;;;;;;4.93;0.70;;;;;;;24.67;44.47;100645.16;2087941;28;20041;-72
2022/09/28 01:50:42;;;;;;;7.25;1.35;;;;;;;24.70;44.29;100644.13;2094849;28;20044;-73
2022/09/28 01:52:10;;;;;;;5.55;0.98;;;;;;;24.73;43.80;100642.19;2088149;28;20077;-72
2022/09/28 01:53:39;;;;;;;9.75;1.58;;;;;;;24.72;44.09;100645.81;2088373;28;20052;-73
2022/09/28 01:55:12;;;;;;;7.20;0.88;;;;;;;24.72;44.04;100647.66;2087912;28;20043;-73
2022/09/28 01:56:38;;;;;;;5.80;0.75;;;;;;;24.70;44.13;100649.53;2088784;28;20049;-73
2022/09/28 01:58:08;;;;;;;5.25;1.02;;;;;;;24.66;44.16;100647.91;2102769;28;20040;-73
2022/09/28 01:59:34;;;;;;;3.60;0.80;;;;;;;24.61;44.35;100651.69;2090223;28;20482;-73
2022/09/28 02:01:01;;;;;;;4.68;0.88;;;;;;;24.57;44.17;100643.78;2094218;28;20107;-72
2022/09/28 02:02:29;;;;;;;5.75;0.98;;;;;;;24.55;43.81;100638.47;2096673;28;20046;-73
2022/09/28 02:03:57;;;;;;;3.17;0.90;;;;;;;24.53;43.83;100634.97;2088353;28;20041;-73
2022/09/28 02:05:23;;;;;;;5.28;0.77;;;;;;;24.54;43.27;100638.56;2088522;28;20053;-73
2022/09/28 02:06:50;;;;;;;5.97;1.63;;;;;;;24.58;42.77;100635.63;2088244;28;20639;-73
2022/09/28 02:08:20;;;;;;;3.13;1.00;;;;;;;24.63;42.58;100625.50;2086418;28;20052;-73
2022/09/28 02:09:50;;;;;;;2.35;0.57;;;;;;;24.70;42.09;100630.63;2087997;28;20073;-73
2022/09/28 02:11:14;;;;;;;5.43;1.08;;;;;;;24.73;41.94;100634.09;2086209;28;20053;-73
2022/09/28 02:12:41;;;;;;;9.65;1.10;;;;;;;24.76;41.78;100638.44;2085708;28;20096;-73
2022/09/28 02:14:05;;;;;;;1.75;0.43;;;;;;;24.78;41.29;100636.56;2085987;28;20048;-73
2022/09/28 02:15:35;;;;;;;7.35;0.88;;;;;;;24.84;41.02;100641.69;2087971;28;20048;-73
2022/09/28 02:16:59;;;;;;;7.07;0.95;;;;;;;24.85;41.27;100632.66;2086881;28;20045;-73
2022/09/28 02:18:25;;;;;;;8.82;1.63;;;;;;;24.85;41.02;100646.16;2077813;28;20148;-72
2022/09/28 02:19:47;;;;;;;5.00;1.40;;;;;;;24.89;40.44;100637.88;2093923;28;20043;-73
2022/09/28 02:21:15;;;;;;;5.93;0.80;;;;;;;24.98;40.07;100639.28;2087182;28;20052;-73
2022/09/28 02:22:43;;;;;;;6.05;1.10;;;;;;;25.05;39.80;100646.16;2086425;28;20045;-73
2022/09/28 02:24:09;;;;;;;6.65;0.90;;;;;;;25.09;39.61;100647.75;2102903;28;20515;-73
2022/09/28 02:25:39;;;;;;;8.05;1.00;;;;;;;25.07;39.73;100657.78;2090193;28;20539;-73
2022/09/28 02:27:09;;;;;;;5.05;0.75;;;;;;;25.08;40.05;100655.94;2080224;28;20045;-73
2022/09/28 02:28:32;;;;;;;3.30;0.90;;;;;;;25.06;39.92;100660.53;2085594;28;20057;-73
2022/09/28 02:29:53;;;;;;;4.10;1.00;;;;;;;25.04;39.85;100657.91;2084969;28;20541;-73
2022/09/28 02:31:18;;;;;;;2.75;0.50;;;;;;;25.05;39.92;100661.50;2084843;28;20045;-73
2022/09/28 02:32:43;;;;;;;4.32;0.75;;;;;;;25.01;39.94;100649.94;2095892;28;20402;-73
2022/09/28 02:34:06;;;;;;;4.85;1.10;;;;;;;24.99;39.78;100654.53;2087850;28;20052;-72
2022/09/28 02:35:29;;;;;;;5.15;1.08;;;;;;;25.00;39.72;100659.00;2085002;28;20099;-73
2022/09/28 02:36:51;;;;;;;9.25;0.93;;;;;;;24.99;39.59;100657.25;2085211;28;20045;-73
2022/09/28 02:38:15;;;;;;;3.72;0.55;;;;;;;24.98;39.74;100648.25;2095739;28;20076;-73
2022/09/28 02:39:38;;;;;;;1.38;0.57;;;;;;;24.97;40.00;100654.59;2089835;28;20041;-73
2022/09/28 02:41:05;;;;;;;3.00;0.57;;;;;;;24.98;39.89;100656.38;2093340;28;20055;-73
2022/09/28 02:42:34;;;;;;;0.75;0.57;;;;;;;24.98;39.91;100653.66;2087953;28;20049;-73
2022/09/28 02:44:08;;;;;;;3.22;0.73;;;;;;;24.96;39.73;100651.97;2088209;28;20064;-73
2022/09/28 02:45:46;;;;;;;11.18;2.03;;;;;;;24.95;39.81;100659.19;2096597;28;20067;-73
2022/09/28 02:47:21;;;;;;;6.93;0.93;;;;;;;24.94;39.55;100659.28;2089422;28;20071;-73
2022/09/28 02:48:59;;;;;;;7.47;0.77;;;;;;;24.92;39.85;100656.66;2095849;28;20118;-73
2022/09/28 02:50:32;;;;;;;2.97;1.20;;;;;;;24.92;39.71;100658.47;2089288;28;20037;-73
2022/09/28 02:52:09;;;;;;;9.55;1.05;;;;;;;24.89;39.85;100659.47;2087688;28;20114;-73
2022/09/28 02:53:45;;;;;;;5.72;1.17;;;;;;;24.88;40.05;100660.38;2096940;28;20059;-72
2022/09/28 02:55:20;;;;;;;5.78;0.65;;;;;;;24.90;39.87;100658.53;2089393;28;20051;-74
2022/09/28 02:56:56;;;;;;;7.82;0.70;;;;;;;24.94;39.69;100664.69;2088032;28;20029;-74
2022/09/28 02:58:28;;;;;;;3.47;0.60;;;;;;;24.96;39.65;100662.78;2088197;28;20048;-74
2022/09/28 03:00:02;;;;;;;5.78;0.82;;;;;;;25.00;39.63;100661.72;2087368;28;20129;-72
2022/09/28 03:01:35;;;;;;;3.88;0.60;;;;;;;25.05;39.00;100659.66;2088176;28;20150;-72
2022/09/28 03:03:09;;;;;;;2.30;0.47;;;;;;;25.18;38.86;100660.84;2088551;28;20045;-73
2022/09/28 03:04:39;;;;;;;5.30;1.20;;;;;;;25.24;38.64;100659.69;2096021;28;20076;-72
2022/09/28 03:06:15;;;;;;;7.45;0.82;;;;;;;25.24;38.70;100657.88;2097420;28;20102;-72
2022/09/28 03:07:52;;;;;;;1.65;0.45;;;;;;;25.23;38.72;100666.03;2088958;28;20037;-73
2022/09/28 03:09:21;;;;;;;5.38;0.88;;;;;;;25.21;38.87;100665.22;2087208;28;20465;-72
2022/09/28 03:10:49;;;;;;;4.07;0.50;;;;;;;25.18;38.77;100668.97;2094581;28;20049;-73
2022/09/28 03:12:15;;;;;;;3.03;0.73;;;;;;;25.19;38.87;100669.84;2096093;28;20101;-73
2022/09/28 03:13:39;;;;;;;5.32;0.60;;;;;;;25.15;38.96;100669.09;2087868;28;20432;-73
2022/09/28 03:15:08;;;;;;;5.80;0.77;;;;;;;25.12;38.99;100669.25;2087087;28;20045;-73
2022/09/28 03:16:31;;;;;;;4.50;0.70;;;;;;;25.12;39.07;100671.94;2094714;28;20056;-73
2022/09/28 03:17:54;;;;;;;3.53;0.65;;;;;;;25.12;39.27;100674.66;2087282;28;20488;-73
2022/09/28 03:19:21;;;;;;;4.65;0.75;;;;;;;25.10;39.43;100673.84;2101297;28;20051;-72
2022/09/28 03:20:45;;;;;;;4.57;0.80;;;;;;;25.05;39.26;100678.56;2089399;28;20076;-73
2022/09/28 03:22:07;;;;;;;7.32;0.70;;;;;;;25.02;39.47;100670.59;2076505;28;20076;-73
2022/09/28 03:23:29;;;;;;;7.65;1.75;;;;;;;24.98;39.88;100679.81;2090338;28;20075;-73
2022/09/28 03:24:50;;;;;;;4.43;0.90;;;;;;;24.97;40.09;100678.03;2097822;28;20154;-73
2022/09/28 03:26:15;;;;;;;6.13;0.88;;;;;;;24.98;40.52;100682.50;2087046;28;20055;-73
2022/09/28 03:27:37;;;;;;;8.77;1.42;;;;;;;24.99;40.53;100678.84;2084987;28;20120;-74
2022/09/28 03:28:59;;;;;;;6.82;1.27;;;;;;;24.99;40.53;100682.44;2084248;28;20051;-73
2022/09/28 03:30:21;;;;;;;4.93;0.90;;;;;;;24.97;41.00;100676.22;2084541;28;20083;-73
2022/09/28 03:31:45;;;;;;;3.42;0.82;;;;;;;24.94;41.29;100683.59;2083720;28;20068;-73
2022/09/28 03:33:06;;;;;;;3.10;0.90;;;;;;;24.95;41.50;100688.03;2095355;28;20071;-72
2022/09/28 03:34:31;;;;;;;4.43;1.05;;;;;;;24.94;42.29;100687.16;2086697;28;20049;-73
2022/09/28 03:35:54;;;;;;;9.23;1.38;;;;;;;24.99;42.87;100686.97;2093155;28;20083;-72
2022/09/28 03:37:17;;;;;;;3.95;0.90;;;;;;;25.04;43.06;100676.81;2087111;28;20053;-72
2022/09/28 03:38:38;;;;;;;2.88;0.73;;;;;;;25.06;43.39;100680.34;2084261;28;20386;-73
2022/09/28 03:40:02;;;;;;;7.28;1.00;;;;;;;25.06;43.58;100674.94;2084453;28;20072;-72
2022/09/28 03:41:24;;;;;;;3.53;0.77;;;;;;;25.05;43.94;100670.47;2092742;28;20055;-72
2022/09/28 03:42:46;;;;;;;5.82;1.08;;;;;;;25.06;44.01;100669.53;2103404;28;20044;-73
2022/09/28 03:44:09;;;;;;;3.58;0.80;;;;;;;25.09;44.42;100679.31;2089484;28;20057;-73
2022/09/28 03:45:30;;;;;;;4.65;1.10;;;;;;;25.09;44.73;100663.97;2084309;28;20037;-73
2022/09/28 03:46:53;;;;;;;4.03;1.38;;;;;;;25.10;45.38;100670.25;2084267;28;20045;-72
2022/09/28 03:48:14;;;;;;;6.65;0.90;;;;;;;25.10;45.45;100676.53;2087181;28;20052;-72
2022/09/28 03:49:38;;;;;;;7.07;1.02;;;;;;;25.10;46.03;100671.13;2100745;28;20114;-73
2022/09/28 03:51:03;;;;;;;7.07;1.45;;;;;;;25.09;46.24;100673.91;2089439;28;20047;-72
2022/09/28 03:52:25;;;;;;;3.90;1.63;;;;;;;25.05;46.82;100677.69;2084937;28;20150;-73
2022/09/28 03:53:48;;;;;;;4.20;0.90;;;;;;;25.05;46.72;100681.28;2101039;28;20044;-72
2022/09/28 03:55:09;;;;;;;5.15;0.73;;;;;;;25.05;47.13;100675.00;2089387;28;20405;-72
2022/09/28 03:56:32;;;;;;;8.88;1.42;;;;;;;25.08;47.31;100670.31;2084109;28;20403;-73
2022/09/28 03:57:54;;;;;;;7.80;1.00;;;;;;;25.08;47.20;100675.72;2092488;28;20079;-72
2022/09/28 03:59:17;;;;;;;;;;;;;;;25.07;47.28;100687.50;2087335;28;20045;-73
2022/09/28 04:00:38;;;;;;;7.80;0.85;;;;;;;25.06;47.53;100674.94;2084576;28;19986;-73
2022/09/28 04:02:01;;;;;;;5.40;1.15;;;;;;;25.09;47.53;100680.19;2092259;28;20055;-73
2022/09/28 04:03:24;;;;;;;12.10;1.67;;;;;;;25.12;47.85;100680.06;2087171;28;20505;-73
2022/09/28 04:04:49;;;;;;;5.35;1.00;;;;;;;25.12;47.69;100684.59;2084550;28;20048;-73
2022/09/28 04:06:12;;;;;;;6.32;1.00;;;;;;;25.11;47.61;100685.53;2078938;28;20056;-72
2022/09/28 04:07:33;;;;;;;6.43;0.90;;;;;;;25.13;47.85;100675.53;2082082;28;20136;-72
2022/09/28 04:08:56;;;;;;;6.32;0.80;;;;;;;25.14;47.69;100682.69;2094729;28;20049;-72
2022/09/28 04:10:18;;;;;;;5.45;1.00;;;;;;;25.14;47.87;100678.13;2086816;28;20048;-73
2022/09/28 04:11:40;;;;;;;4.40;0.90;;;;;;;25.14;48.01;100680.84;2092377;28;20068;-73
2022/09/28 04:13:03;;;;;;;8.63;1.17;;;;;;;25.12;48.16;100673.78;2087069;28;20148;-73
2022/09/28 04:14:24;;;;;;;7.93;1.00;;;;;;;25.10;48.31;100671.13;2092545;28;20044;-72
2022/09/28 04:15:53;;;;;;;4.00;0.70;;;;;;;25.07;48.65;100671.28;2086792;28;20139;-73
2022/09/28 04:17:16;;;;;;;2.65;0.80;;;;;;;25.04;48.87;100668.72;2086036;28;20144;-72
2022/09/28 04:18:38;;;;;;;3.95;0.93;;;;;;;25.04;49.31;100654.31;2084349;28;20052;-73
2022/09/28 04:20:15;;;;;;;4.75;0.80;;;;;;;25.02;49.41;100659.78;2095748;28;20098;-72
2022/09/28 04:22:01;;;;;;;5.00;0.68;;;;;;;24.96;49.52;100649.25;2089535;28;20059;-73
2022/09/28 04:23:25;;;;;;;6.70;1.60;;;;;;;24.95;49.95;100656.50;2085212;28;20106;-72
2022/09/28 04:24:47;;;;;;;2.95;0.88;;;;;;;24.95;49.80;100652.91;2084333;28;20071;-73
2022/09/28 04:26:15;;;;;;;5.50;1.35;;;;;;;24.96;49.84;100641.16;2092593;28;20056;-73
2022/09/28 04:29:17;;;;;;;3.20;0.70;;;;;;;24.96;50.25;100633.94;2097272;28;20558;-73
2022/09/28 04:30:57;;;;;;;1.65;0.68;;;;;;;25.00;50.26;100627.47;2089394;28;20139;-73
2022/09/28 04:32:20;;;;;;;4.78;1.67;;;;;;;25.05;49.85;100629.94;2092540;28;20059;-72
2022/09/28 04:33:41;;;;;;;4.93;0.68;;;;;;;25.09;50.04;100631.53;2089342;28;20037;-73
2022/09/28 04:35:04;;;;;;;4.93;0.73;;;;;;;25.13;49.57;100625.06;2092114;28;20150;-73
2022/09/28 04:36:27;;;;;;;4.55;0.80;;;;;;;25.19;49.41;100622.09;2087049;28;20045;-73
2022/09/28 04:37:50;;;;;;;4.80;0.85;;;;;;;25.23;49.36;100623.69;2095030;28;20413;-72
2022/09/28 04:39:13;;;;;;;4.88;0.60;;;;;;;25.28;49.17;100616.22;2078398;28;20046;-72
2022/09/28 04:40:37;;;;;;;5.35;0.80;;;;;;;25.34;49.04;100629.44;2090884;28;20045;-72
2022/09/28 04:41:58;;;;;;;2.10;0.63;;;;;;;25.39;48.95;100619.31;2086790;28;20152;-73
2022/09/28 04:43:23;;;;;;;1.45;0.70;;;;;;;25.47;48.94;100618.91;2088036;28;20226;-73
2022/09/28 04:44:44;;;;;;;4.30;0.68;;;;;;;25.53;48.55;100613.25;2085824;28;20041;-72
2022/09/28 04:46:07;;;;;;;;;;;;;;;25.57;48.62;100611.25;2086257;28;20076;-73
2022/09/28 04:47:37;;;;;;;6.45;0.98;;;;;;;25.63;48.35;100616.41;2087821;28;20018;-73
2022/09/28 04:49:25;;;;;;;6.93;0.73;;;;;;;25.69;48.25;100618.78;2090900;28;20055;-73
2022/09/28 04:51:00;;;;;;;4.97;0.82;;;;;;;25.74;48.06;100619.44;2088973;28;20134;-72
2022/09/28 04:52:25;;;;;;;6.07;0.98;;;;;;;25.80;47.71;100624.53;2085988;28;20041;-73
2022/09/28 04:53:48;;;;;;;4.80;0.77;;;;;;;25.82;47.38;100622.66;2090866;28;20091;-73
2022/09/28 04:55:11;;;;;;;2.55;0.75;;;;;;;25.86;46.94;100624.25;2085847;28;20131;-73
2022/09/28 04:56:34;;;;;;;6.18;0.80;;;;;;;25.90;47.00;100620.44;2096588;28;20135;-73
2022/09/28 04:57:55;;;;;;;4.80;1.25;;;;;;;25.93;46.67;100627.53;2088289;28;20073;-73
2022/09/28 04:59:18;;;;;;;5.28;0.60;;;;;;;25.94;46.76;100615.75;2096201;28;20368;-72
2022/09/28 05:00:41;;;;;;;4.45;0.63;;;;;;;25.97;46.35;100623.72;2088379;28;20492;-73
2022/09/28 05:02:23;;;;;;;5.35;0.88;;;;;;;26.02;46.19;100627.94;2099031;28;20102;-73
2022/09/28 05:04:04;;;;;;;3.17;1.10;;;;;;;26.11;46.12;100641.03;2098727;28;20417;-73
2022/09/28 05:06:02;;;;;;;5.75;1.00;;;;;;;26.19;45.83;100633.34;2093179;28;20138;-73
2022/09/28 05:07:41;;;;;;;6.50;0.98;;;;;;;26.27;45.41;100640.25;2098281;28;20063;-73
2022/09/28 05:09:04;;;;;;;3.88;0.75;;;;;;;26.30;45.25;100638.28;2088310;28;20076;-73
2022/09/28 05:10:26;;;;;;;2.70;0.70;;;;;;;26.33;45.31;100637.22;2093880;28;20450;-73
2022/09/28 05:11:51;;;;;;;5.20;0.80;;;;;;;26.32;45.18;100649.88;2088001;28;20107;-73
2022/09/28 05:13:17;;;;;;;3.75;0.80;;;;;;;26.30;45.32;100642.81;2095122;28;20079;-73
2022/09/28 05:14:42;;;;;;;4.20;1.33;;;;;;;26.27;45.17;100649.25;2080077;28;20061;-73
2022/09/28 05:16:06;;;;;;;3.50;0.80;;;;;;;26.23;45.33;100644.03;2084313;28;20040;-73
2022/09/28 05:17:35;;;;;;;3.05;0.47;;;;;;;26.20;45.23;100658.59;2095325;28;20079;-73
2022/09/28 05:19:17;;;;;;;3.00;0.80;;;;;;;26.16;45.65;100659.72;2098734;28;20049;-73
2022/09/28 05:20:44;;;;;;;4.53;0.73;;;;;;;26.13;45.64;100665.28;2095927;28;20037;-72
2022/09/28 05:22:10;;;;;;;7.60;1.25;;;;;;;26.10;46.01;100663.63;2088559;28;20053;-73
2022/09/28 05:23:42;;;;;;;3.63;0.90;;;;;;;26.06;46.12;100664.72;2088140;28;20037;-73
2022/09/28 05:25:03;;;;;;;4.85;0.60;;;;;;;26.04;45.94;100666.63;2090661;28;20048;-72
2022/09/28 05:26:36;;;;;;;7.97;2.15;;;;;;;26.04;46.28;100666.63;2089237;28;20104;-73
2022/09/28 05:28:00;;;;;;;4.13;0.77;;;;;;;26.02;46.14;100673.94;2094105;28;20186;-73
2022/09/28 05:29:46;;;;;;;4.32;0.82;;;;;;;26.01;46.58;100674.88;2079065;28;20048;-72
2022/09/28 05:31:43;;;;;;;4.80;0.90;;;;;;;26.03;46.58;100667.56;2073842;28;20483;-72
2022/09/28 05:33:24;;;;;;;7.07;0.85;;;;;;;26.04;46.64;100669.34;2068091;28;20050;-73
2022/09/28 05:35:00;;;;;;;3.92;0.70;;;;;;;26.11;46.80;100669.91;2089551;28;20060;-73
2022/09/28 05:36:28;;;;;;;7.80;1.25;;;;;;;26.23;46.80;100672.00;2095299;28;20207;-72
2022/09/28 05:37:50;;;;;;;6.15;0.75;;;;;;;26.33;46.82;100672.41;2088096;28;20037;-73
2022/09/28 05:39:14;;;;;;;5.03;0.85;;;;;;;26.48;46.61;100668.94;2082016;28;20502;-73
2022/09/28 05:40:37;;;;;;;5.18;1.45;;;;;;;26.62;46.73;100669.09;2093875;28;20048;-73
2022/09/28 05:41:59;;;;;;;3.58;0.90;;;;;;;26.71;46.48;100674.06;2098874;28;20044;-73
2022/09/28 05:43:23;;;;;;;10.27;1.80;;;;;;;26.78;46.48;100659.19;2090440;28;20135;-73
2022/09/28 05:44:45;;;;;;;4.45;0.65;;;;;;;26.87;46.71;100669.56;2085357;28;20125;-72
2022/09/28 05:46:08;;;;;;;5.15;2.35;;;;;;;27.02;46.55;100672.44;2093387;28;20052;-73
2022/09/28 05:47:38;;;;;;;4.15;1.00;;;;;;;27.23;46.56;100682.13;2088612;28;20045;-72
2022/09/28 05:49:01;;;;;;;4.65;1.00;;;;;;;27.37;46.30;100671.41;2094637;28;20381;-73
2022/09/28 05:50:25;;;;;;;10.52;0.90;;;;;;;27.44;46.25;100680.06;2087719;28;20041;-72
2022/09/28 05:51:47;;;;;;;5.72;1.00;;;;;;;27.54;46.29;100684.94;2085672;28;20044;-73
2022/09/28 05:53:11;;;;;;;4.72;0.98;;;;;;;27.63;46.04;100687.13;2085358;28;20048;-72
2022/09/28 05:54:34;;;;;;;5.50;0.88;;;;;;;27.67;46.05;100683.28;2087179;28;20441;-73
2022/09/28 05:55:59;;;;;;;5.00;1.02;;;;;;;27.77;46.01;100684.50;2087908;28;20064;-73
2022/09/28 05:57:20;;;;;;;8.93;1.40;;;;;;;27.87;45.83;100670.41;2088068;28;20052;-73
2022/09/28 05:58:43;;;;;;;5.32;1.05;;;;;;;27.98;45.72;100681.50;2093202;28;20040;-72
2022/09/28 06:00:07;;;;;;;3.60;1.00;;;;;;;28.10;45.45;100680.78;2090209;28;20052;-73
2022/09/28 06:01:34;;;;;;;5.30;1.02;;;;;;;28.19;45.45;100679.44;2094730;28;20113;-73
2022/09/28 06:03:00;;;;;;;1.55;0.77;;;;;;;28.26;45.26;100684.41;2087948;28;20105;-73
2022/09/28 06:04:23;;;;;;;4.53;1.00;;;;;;;28.33;45.13;100679.50;2093933;28;20064;-73
2022/09/28 06:05:47;;;;;;;5.82;1.10;;;;;;;28.41;44.95;100680.78;2096164;28;20036;-73
2022/09/28 06:07:10;;;;;;;4.45;0.85;;;;;;;28.48;45.14;100682.19;2087607;28;20436;-73
2022/09/28 06:08:33;;;;;;;4.80;0.93;;;;;;;28.64;45.09;100678.50;2085309;28;20057;-73
2022/09/28 06:10:11;;;;;;;3.80;0.80;;;;;;;28.75;44.86;100678.78;2096687;28;20049;-73
2022/09/28 06:11:38;;;;;;;3.63;1.13;;;;;;;28.82;44.70;100678.31;2088552;28;20055;-73
2022/09/28 06:13:21;;;;;;;4.43;1.10;;;;;;;28.92;44.51;100681.34;2096690;28;20075;-73
2022/09/28 06:14:43;;;;;;;6.25;1.00;;;;;;;29.01;44.55;100669.91;2087599;28;20431;-73
2022/09/28 06:16:09;;;;;;;5.05;0.90;;;;;;;29.10;44.52;100669.31;2093384;28;20087;-73
2022/09/28 06:17:31;;;;;;;2.70;0.60;;;;;;;29.18;44.12;100677.88;2087987;28;20052;-73
2022/09/28 06:19:20;;;;;;;4.32;0.85;;;;;;;29.31;43.68;100672.53;2083672;28;20059;-73
2022/09/28 06:21:04;;;;;;;3.95;0.73;;;;;;;29.19;43.88;100690.50;2089871;28;20087;-73
2022/09/28 06:22:34;;;;;;;4.40;0.80;;;;;;;29.09;44.20;100678.44;2095040;28;20059;-73
2022/09/28 06:24:05;;;;;;;3.55;0.98;;;;;;;29.19;44.20;100684.19;2088366;28;20528;-70
2022/09/28 06:25:30;;;;;;;8.90;1.20;;;;;;;29.37;44.18;100685.78;2087873;28;20556;-70
2022/09/28 06:26:52;;;;;;;2.97;0.68;;;;;;;29.54;43.94;100685.56;2093562;28;20041;-71
2022/09/28 06:28:19;;;;;;;5.43;0.85;;;;;;;29.70;43.24;100701.78;2087116;28;20440;-71
2022/09/28 06:29:41;;;;;;;5.30;0.80;;;;;;;29.79;43.33;100687.56;2093764;28;20043;-71
2022/09/28 06:31:03;;;;;;;7.53;1.10;;;;;;;29.69;43.48;100700.91;2095731;28;20518;-72
2022/09/28 06:32:28;;;;;;;4.78;1.02;;;;;;;29.61;43.68;100703.22;2087699;28;20048;-72
2022/09/28 06:33:51;;;;;;;4.50;0.70;;;;;;;29.71;43.30;100695.38;2085382;28;20048;-72
2022/09/28 06:35:14;;;;;;;1.73;0.57;;;;;;;29.92;43.38;100696.72;2087372;28;20077;-72
2022/09/28 06:36:37;;;;;;;4.75;0.88;;;;;;;30.10;43.14;100694.63;2087307;28;20128;-72
2022/09/28 06:38:01;;;;;;;2.22;1.27;;;;;;;30.19;43.13;100693.16;2095606;28;20056;-72
2022/09/28 06:39:24;;;;;;;1.27;0.43;;;;;;;30.33;42.81;100696.66;2087382;28;20123;-72
2022/09/28 06:40:48;;;;;;;2.83;0.82;;;;;;;30.57;42.16;100686.00;2076742;28;20533;-72
2022/09/28 06:42:11;;;;;;;6.55;1.15;;;;;;;30.72;41.59;100694.97;2082653;28;20070;-72
2022/09/28 06:43:55;;;;;;;2.55;0.50;;;;;;;30.96;41.40;100692.38;2098093;28;20381;-73
2022/09/28 06:45:30;;;;;;;9.40;1.15;;;;;;;31.08;41.24;100681.50;2097354;28;20044;-72